sensor_id;sensor_type;location;lat;lon;timestamp;temperature;humidity
6822;DHT22;3449;48.728;8.968;2024-03-23T00:52:21;8.20;99.90
6822;DHT22;3449;48.728;8.968;2024-03-23T00:54:46;8.10;99.90
6822;DHT22;3449;48.728;8.968;2024-03-23T00:57:13;8.10;99.90
6822;DHT22;3449;48.728;8.968;2024-03-23T00:59:39;8.00;99.90
6822;DHT22;3449;48.728;8.968;2024-03-23T01:02:06;8.00;99.90
6822;DHT22;3449;48.728;8.968;2024-03-23T01:04:32;8.00;99.90
6822;DHT22;3449;48.728;8.968;2024-03-23T01:06:58;8.00;99.90
6822;DHT22;3449;48.728;8.968;2024-03-23T01:09:26;8.00;99.90
6822;DHT22;3449;48.728;8.968;2024-03-23T01:11:52;8.00;99.90
6822;DHT22;3449;48.728;8.968;2024-03-23T01:14:18;8.00;99.90
6822;DHT22;3449;48.728;8.968;2024-03-23T01:16:45;8.00;99.90
6822;DHT22;3449;48.728;8.968;2024-03-23T01:19:11;8.00;99.90
6822;DHT22;3449;48.728;8.968;2024-03-23T01:21:38;8.10;99.90
6822;DHT22;3449;48.728;8.968;2024-03-23T01:24:04;8.10;99.90
6822;DHT22;3449;48.728;8.968;2024-03-23T01:26:32;8.10;99.90
6822;DHT22;3449;48.728;8.968;2024-03-23T01:28:58;8.10;99.90
6822;DHT22;3449;48.728;8.968;2024-03-23T01:31:25;8.10;99.90
6822;DHT22;3449;48.728;8.968;2024-03-23T01:33:51;8.10;99.90
6822;DHT22;3449;48.728;8.968;2024-03-23T01:36:17;8.20;99.90
6822;DHT22;3449;48.728;8.968;2024-03-23T01:38:44;8.30;99.90
6822;DHT22;3449;48.728;8.968;2024-03-23T01:41:10;8.30;99.90
6822;DHT22;3449;48.728;8.968;2024-03-23T01:43:38;8.40;99.90
6822;DHT22;3449;48.728;8.968;2024-03-23T01:46:04;8.50;99.90
6822;DHT22;3449;48.728;8.968;2024-03-23T01:48:30;8.70;99.90
6822;DHT22;3449;48.728;8.968;2024-03-23T01:50:57;8.90;99.90
6822;DHT22;3449;48.728;8.968;2024-03-23T01:53:24;8.90;99.90
6822;DHT22;3449;48.728;8.968;2024-03-23T01:55:51;9.00;99.90
6822;DHT22;3449;48.728;8.968;2024-03-23T01:58:17;9.10;99.90
6822;DHT22;3449;48.728;8.968;2024-03-23T02:00:45;9.20;99.90
6822;DHT22;3449;48.728;8.968;2024-03-23T02:03:24;9.10;99.90
6822;DHT22;3449;48.728;8.968;2024-03-23T02:05:52;9.10;99.90
6822;DHT22;3449;48.728;8.968;2024-03-23T02:08:20;9.20;99.90
6822;DHT22;3449;48.728;8.968;2024-03-23T02:10:47;9.20;99.90
6822;DHT22;3449;48.728;8.968;2024-03-23T02:13:14;9.30;99.90
6822;DHT22;3449;48.728;8.968;2024-03-23T02:15:41;9.30;99.90
6822;DHT22;3449;48.728;8.968;2024-03-23T02:18:08;9.30;99.90
6822;DHT22;3449;48.728;8.968;2024-03-23T02:20:35;9.20;99.90
6822;DHT22;3449;48.728;8.968;2024-03-23T02:23:03;9.20;99.90
6822;DHT22;3449;48.728;8.968;2024-03-23T02:25:31;9.10;99.90
6822;DHT22;3449;48.728;8.968;2024-03-23T02:27:57;9.10;99.90
6822;DHT22;3449;48.728;8.968;2024-03-23T02:30:24;9.00;99.90
6822;DHT22;3449;48.728;8.968;2024-03-23T02:32:50;9.00;99.90
6822;DHT22;3449;48.728;8.968;2024-03-23T02:35:17;9.00;99.90
6822;DHT22;3449;48.728;8.968;2024-03-23T02:37:43;9.00;99.90
6822;DHT22;3449;48.728;8.968;2024-03-23T02:40:11;9.00;99.90
6822;DHT22;3449;48.728;8.968;2024-03-23T02:42:37;8.90;99.90
6822;DHT22;3449;48.728;8.968;2024-03-23T02:45:04;8.90;99.90
6822;DHT22;3449;48.728;8.968;2024-03-23T02:47:30;8.90;99.90
6822;DHT22;3449;48.728;8.968;2024-03-23T02:49:57;8.90;99.90
6822;DHT22;3449;48.728;8.968;2024-03-23T02:52:23;8.90;99.90
6822;DHT22;3449;48.728;8.968;2024-03-23T02:54:50;8.90;99.90
6822;DHT22;3449;48.728;8.968;2024-03-23T02:57:17;8.80;99.90
6822;DHT22;3449;48.728;8.968;2024-03-23T02:59:45;8.80;99.90
6822;DHT22;3449;48.728;8.968;2024-03-23T03:02:12;8.70;99.90
6822;DHT22;3449;48.728;8.968;2024-03-23T03:04:39;8.70;99.90
6822;DHT22;3449;48.728;8.968;2024-03-23T03:07:05;8.70;99.90
6822;DHT22;3449;48.728;8.968;2024-03-23T03:09:32;8.70;99.90
6822;DHT22;3449;48.728;8.968;2024-03-23T03:11:58;8.70;99.90
6822;DHT22;3449;48.728;8.968;2024-03-23T03:14:26;8.60;99.90
6822;DHT22;3449;48.728;8.968;2024-03-23T03:16:53;8.60;99.90
6822;DHT22;3449;48.728;8.968;2024-03-23T03:19:20;8.50;99.90
6822;DHT22;3449;48.728;8.968;2024-03-23T03:21:46;8.50;99.90
6822;DHT22;3449;48.728;8.968;2024-03-23T03:24:13;8.50;99.90
6822;DHT22;3449;48.728;8.968;2024-03-23T03:26:39;8.40;99.90
6822;DHT22;3449;48.728;8.968;2024-03-23T03:29:06;8.40;99.90
6822;DHT22;3449;48.728;8.968;2024-03-23T03:31:33;8.30;99.90
6822;DHT22;3449;48.728;8.968;2024-03-23T03:34:00;8.30;99.90
6822;DHT22;3449;48.728;8.968;2024-03-23T03:36:26;8.20;99.90
6822;DHT22;3449;48.728;8.968;2024-03-23T03:38:53;8.20;99.90
6822;DHT22;3449;48.728;8.968;2024-03-23T03:41:19;8.10;99.90
6822;DHT22;3449;48.728;8.968;2024-03-23T03:43:45;8.10;99.90
6822;DHT22;3449;48.728;8.968;2024-03-23T03:46:11;8.10;99.90
6822;DHT22;3449;48.728;8.968;2024-03-23T03:48:39;8.00;99.90
6822;DHT22;3449;48.728;8.968;2024-03-23T03:51:05;8.00;99.90
6822;DHT22;3449;48.728;8.968;2024-03-23T03:53:32;7.90;99.90
6822;DHT22;3449;48.728;8.968;2024-03-23T03:56:00;7.90;99.90
6822;DHT22;3449;48.728;8.968;2024-03-23T03:58:26;7.90;99.90
6822;DHT22;3449;48.728;8.968;2024-03-23T04:00:53;7.90;99.90
6822;DHT22;3449;48.728;8.968;2024-03-23T04:03:19;7.90;99.90
6822;DHT22;3449;48.728;8.968;2024-03-23T04:05:51;7.90;99.90
6822;DHT22;3449;48.728;8.968;2024-03-23T04:08:17;7.90;99.90
6822;DHT22;3449;48.728;8.968;2024-03-23T04:10:44;7.90;99.90
6822;DHT22;3449;48.728;8.968;2024-03-23T04:13:10;7.90;99.90
6822;DHT22;3449;48.728;8.968;2024-03-23T04:15:37;7.90;99.90
6822;DHT22;3449;48.728;8.968;2024-03-23T04:18:03;7.90;99.90
6822;DHT22;3449;48.728;8.968;2024-03-23T04:20:29;8.00;99.90
6822;DHT22;3449;48.728;8.968;2024-03-23T04:22:57;8.00;99.90
6822;DHT22;3449;48.728;8.968;2024-03-23T04:25:23;8.10;99.90
6822;DHT22;3449;48.728;8.968;2024-03-23T04:27:49;8.10;99.90
6822;DHT22;3449;48.728;8.968;2024-03-23T04:30:17;8.10;99.90
6822;DHT22;3449;48.728;8.968;2024-03-23T04:32:43;8.10;99.90
6822;DHT22;3449;48.728;8.968;2024-03-23T04:35:10;8.10;99.90
6822;DHT22;3449;48.728;8.968;2024-03-23T04:37:36;8.10;99.90
6822;DHT22;3449;48.728;8.968;2024-03-23T04:40:05;8.10;99.90
6822;DHT22;3449;48.728;8.968;2024-03-23T04:42:33;8.10;99.90
6822;DHT22;3449;48.728;8.968;2024-03-23T04:45:00;8.20;99.90
6822;DHT22;3449;48.728;8.968;2024-03-23T04:47:27;8.20;99.90
6822;DHT22;3449;48.728;8.968;2024-03-23T04:49:54;8.40;99.90
6822;DHT22;3449;48.728;8.968;2024-03-23T04:52:19;8.50;99.90
6822;DHT22;3449;48.728;8.968;2024-03-23T04:54:46;8.60;99.90
6822;DHT22;3449;48.728;8.968;2024-03-23T04:57:14;8.70;99.90
6822;DHT22;3449;48.728;8.968;2024-03-23T04:59:42;8.80;99.90
6822;DHT22;3449;48.728;8.968;2024-03-23T05:02:08;8.80;99.90
6822;DHT22;3449;48.728;8.968;2024-03-23T05:04:35;8.80;99.90
6822;DHT22;3449;48.728;8.968;2024-03-23T05:07:02;8.80;99.90
6822;DHT22;3449;48.728;8.968;2024-03-23T05:09:29;8.80;99.90
6822;DHT22;3449;48.728;8.968;2024-03-23T05:11:56;8.80;99.90
6822;DHT22;3449;48.728;8.968;2024-03-23T05:14:24;8.70;99.90
6822;DHT22;3449;48.728;8.968;2024-03-23T05:16:50;8.70;99.90
6822;DHT22;3449;48.728;8.968;2024-03-23T05:19:17;8.70;99.90
6822;DHT22;3449;48.728;8.968;2024-03-23T05:21:43;8.70;99.90
6822;DHT22;3449;48.728;8.968;2024-03-23T05:24:10;8.70;99.90
6822;DHT22;3449;48.728;8.968;2024-03-23T05:26:37;8.70;99.90
6822;DHT22;3449;48.728;8.968;2024-03-23T05:29:04;8.60;99.90
6822;DHT22;3449;48.728;8.968;2024-03-23T05:31:33;8.60;99.90
6822;DHT22;3449;48.728;8.968;2024-03-23T05:34:00;8.60;99.90
6822;DHT22;3449;48.728;8.968;2024-03-23T05:36:26;8.50;99.90
6822;DHT22;3449;48.728;8.968;2024-03-23T05:38:53;8.50;99.90
6822;DHT22;3449;48.728;8.968;2024-03-23T05:41:19;8.50;99.90
6822;DHT22;3449;48.728;8.968;2024-03-23T05:43:45;8.40;99.90
6822;DHT22;3449;48.728;8.968;2024-03-23T05:46:11;8.40;99.90
6822;DHT22;3449;48.728;8.968;2024-03-23T05:48:39;8.40;99.90
6822;DHT22;3449;48.728;8.968;2024-03-23T05:51:05;8.20;99.90
6822;DHT22;3449;48.728;8.968;2024-03-23T05:53:32;8.20;99.90
6822;DHT22;3449;48.728;8.968;2024-03-23T05:56:01;8.10;99.90
6822;DHT22;3449;48.728;8.968;2024-03-23T05:58:30;8.10;99.90
6822;DHT22;3449;48.728;8.968;2024-03-23T06:01:00;8.00;99.90
6822;DHT22;3449;48.728;8.968;2024-03-23T06:03:27;7.90;99.90
6822;DHT22;3449;48.728;8.968;2024-03-23T06:05:55;7.80;99.90
6822;DHT22;3449;48.728;8.968;2024-03-23T06:08:22;7.80;99.90
6822;DHT22;3449;48.728;8.968;2024-03-23T06:10:49;7.80;99.90
6822;DHT22;3449;48.728;8.968;2024-03-23T06:13:16;7.70;99.90
6822;DHT22;3449;48.728;8.968;2024-03-23T06:15:43;7.70;99.90
6822;DHT22;3449;48.728;8.968;2024-03-23T06:18:11;7.70;99.90
6822;DHT22;3449;48.728;8.968;2024-03-23T06:20:37;7.70;99.90
6822;DHT22;3449;48.728;8.968;2024-03-23T06:23:06;7.60;99.90
6822;DHT22;3449;48.728;8.968;2024-03-23T06:25:31;7.70;99.90
6822;DHT22;3449;48.728;8.968;2024-03-23T06:27:58;7.60;99.90
6822;DHT22;3449;48.728;8.968;2024-03-23T06:30:25;7.60;99.90
6822;DHT22;3449;48.728;8.968;2024-03-23T06:32:52;7.60;99.90
6822;DHT22;3449;48.728;8.968;2024-03-23T06:35:18;7.60;99.90
6822;DHT22;3449;48.728;8.968;2024-03-23T06:37:45;7.60;99.90
6822;DHT22;3449;48.728;8.968;2024-03-23T06:40:13;7.60;99.90
6822;DHT22;3449;48.728;8.968;2024-03-23T06:42:40;7.60;99.90
6822;DHT22;3449;48.728;8.968;2024-03-23T06:45:06;7.60;99.90
6822;DHT22;3449;48.728;8.968;2024-03-23T06:47:33;7.50;99.90
6822;DHT22;3449;48.728;8.968;2024-03-23T06:49:59;7.50;99.90
6822;DHT22;3449;48.728;8.968;2024-03-23T06:52:27;7.50;99.90
6822;DHT22;3449;48.728;8.968;2024-03-23T06:54:53;7.50;99.90
6822;DHT22;3449;48.728;8.968;2024-03-23T06:57:21;7.50;99.90
6822;DHT22;3449;48.728;8.968;2024-03-23T06:59:47;7.60;99.90
6822;DHT22;3449;48.728;8.968;2024-03-23T07:02:14;7.60;99.90
6822;DHT22;3449;48.728;8.968;2024-03-23T07:04:41;7.60;99.90
6822;DHT22;3449;48.728;8.968;2024-03-23T07:07:08;7.60;99.90
6822;DHT22;3449;48.728;8.968;2024-03-23T07:09:34;7.60;99.90
6822;DHT22;3449;48.728;8.968;2024-03-23T07:12:00;7.50;99.90
6822;DHT22;3449;48.728;8.968;2024-03-23T07:14:28;7.50;99.90
6822;DHT22;3449;48.728;8.968;2024-03-23T07:16:54;7.50;99.90
6822;DHT22;3449;48.728;8.968;2024-03-23T07:19:20;7.50;99.90
6822;DHT22;3449;48.728;8.968;2024-03-23T07:21:47;7.50;99.90
6822;DHT22;3449;48.728;8.968;2024-03-23T07:24:13;7.50;99.90
6822;DHT22;3449;48.728;8.968;2024-03-23T07:26:40;7.50;99.90
6822;DHT22;3449;48.728;8.968;2024-03-23T07:29:07;7.40;99.90
6822;DHT22;3449;48.728;8.968;2024-03-23T07:31:35;7.30;99.90
6822;DHT22;3449;48.728;8.968;2024-03-23T07:34:01;7.20;99.90
6822;DHT22;3449;48.728;8.968;2024-03-23T07:36:27;7.20;99.90
6822;DHT22;3449;48.728;8.968;2024-03-23T07:38:53;7.20;99.90
6822;DHT22;3449;48.728;8.968;2024-03-23T07:41:20;7.20;99.90
6822;DHT22;3449;48.728;8.968;2024-03-23T07:43:47;7.20;99.90
6822;DHT22;3449;48.728;8.968;2024-03-23T07:46:15;7.20;99.90
6822;DHT22;3449;48.728;8.968;2024-03-23T07:48:42;7.10;99.90
6822;DHT22;3449;48.728;8.968;2024-03-23T07:51:16;7.20;99.90
6822;DHT22;3449;48.728;8.968;2024-03-23T07:53:44;7.20;99.90
6822;DHT22;3449;48.728;8.968;2024-03-23T07:56:10;7.20;99.90
6822;DHT22;3449;48.728;8.968;2024-03-23T07:58:37;7.20;99.90
6822;DHT22;3449;48.728;8.968;2024-03-23T08:01:04;7.20;99.90
6822;DHT22;3449;48.728;8.968;2024-03-23T08:03:33;7.20;99.90
6822;DHT22;3449;48.728;8.968;2024-03-23T08:06:08;7.20;99.90
6822;DHT22;3449;48.728;8.968;2024-03-23T08:08:35;7.20;99.90
6822;DHT22;3449;48.728;8.968;2024-03-23T08:11:01;7.30;99.90
6822;DHT22;3449;48.728;8.968;2024-03-23T08:13:28;7.30;99.90
6822;DHT22;3449;48.728;8.968;2024-03-23T08:15:56;7.30;99.90
6822;DHT22;3449;48.728;8.968;2024-03-23T08:18:23;7.30;99.90
6822;DHT22;3449;48.728;8.968;2024-03-23T08:20:55;7.30;99.90
6822;DHT22;3449;48.728;8.968;2024-03-23T08:23:24;7.30;99.90
6822;DHT22;3449;48.728;8.968;2024-03-23T08:25:50;7.70;99.90
6822;DHT22;3449;48.728;8.968;2024-03-23T08:28:17;7.90;99.90
6822;DHT22;3449;48.728;8.968;2024-03-23T08:30:43;7.80;99.90
6822;DHT22;3449;48.728;8.968;2024-03-23T08:33:10;7.80;99.90
6822;DHT22;3449;48.728;8.968;2024-03-23T08:35:36;7.60;99.90
6822;DHT22;3449;48.728;8.968;2024-03-23T08:38:04;7.50;99.90
6822;DHT22;3449;48.728;8.968;2024-03-23T08:40:31;7.40;99.90
6822;DHT22;3449;48.728;8.968;2024-03-23T08:42:58;7.30;99.90
6822;DHT22;3449;48.728;8.968;2024-03-23T08:45:24;7.20;99.90
6822;DHT22;3449;48.728;8.968;2024-03-23T08:47:51;7.30;99.90
6822;DHT22;3449;48.728;8.968;2024-03-23T08:50:17;7.50;99.90
6822;DHT22;3449;48.728;8.968;2024-03-23T08:52:44;7.90;99.90
6822;DHT22;3449;48.728;8.968;2024-03-23T08:55:10;8.40;99.90
6822;DHT22;3449;48.728;8.968;2024-03-23T08:57:38;8.90;99.90
6822;DHT22;3449;48.728;8.968;2024-03-23T09:00:05;9.20;99.90
6822;DHT22;3449;48.728;8.968;2024-03-23T09:02:34;9.20;99.90
6822;DHT22;3449;48.728;8.968;2024-03-23T09:05:00;9.10;99.90
6822;DHT22;3449;48.728;8.968;2024-03-23T09:07:30;9.10;99.90
6822;DHT22;3449;48.728;8.968;2024-03-23T09:09:56;8.80;99.90
6822;DHT22;3449;48.728;8.968;2024-03-23T09:12:23;8.50;99.90
6822;DHT22;3449;48.728;8.968;2024-03-23T09:14:50;8.30;99.90
6822;DHT22;3449;48.728;8.968;2024-03-23T09:17:17;8.20;99.90
6822;DHT22;3449;48.728;8.968;2024-03-23T09:19:43;8.20;99.90
6822;DHT22;3449;48.728;8.968;2024-03-23T09:22:10;8.30;99.90
6822;DHT22;3449;48.728;8.968;2024-03-23T09:24:36;8.70;99.90
6822;DHT22;3449;48.728;8.968;2024-03-23T09:27:03;8.90;99.90
6822;DHT22;3449;48.728;8.968;2024-03-23T09:29:29;9.30;99.90
6822;DHT22;3449;48.728;8.968;2024-03-23T09:31:57;9.60;99.90
6822;DHT22;3449;48.728;8.968;2024-03-23T09:34:23;9.50;99.90
6822;DHT22;3449;48.728;8.968;2024-03-23T09:36:51;9.10;99.90
6822;DHT22;3449;48.728;8.968;2024-03-23T09:39:17;8.70;99.90
6822;DHT22;3449;48.728;8.968;2024-03-23T09:41:44;8.40;99.90
6822;DHT22;3449;48.728;8.968;2024-03-23T09:44:10;8.30;99.90
6822;DHT22;3449;48.728;8.968;2024-03-23T09:46:38;8.50;99.90
6822;DHT22;3449;48.728;8.968;2024-03-23T09:49:07;8.70;99.90
6822;DHT22;3449;48.728;8.968;2024-03-23T09:51:36;8.70;99.90
6822;DHT22;3449;48.728;8.968;2024-03-23T09:54:02;9.00;99.90
6822;DHT22;3449;48.728;8.968;2024-03-23T09:56:29;9.30;99.90
6822;DHT22;3449;48.728;8.968;2024-03-23T09:59:00;9.50;99.90
6822;DHT22;3449;48.728;8.968;2024-03-23T10:01:29;9.90;99.90
6822;DHT22;3449;48.728;8.968;2024-03-23T10:03:55;10.10;99.90
6822;DHT22;3449;48.728;8.968;2024-03-23T10:06:23;10.40;99.90
6822;DHT22;3449;48.728;8.968;2024-03-23T10:08:50;10.60;99.90
6822;DHT22;3449;48.728;8.968;2024-03-23T10:11:19;10.70;99.90
6822;DHT22;3449;48.728;8.968;2024-03-23T10:13:44;10.70;99.90
6822;DHT22;3449;48.728;8.968;2024-03-23T10:16:20;10.60;99.90
6822;DHT22;3449;48.728;8.968;2024-03-23T10:18:46;10.60;99.90
6822;DHT22;3449;48.728;8.968;2024-03-23T10:21:15;10.50;99.90
6822;DHT22;3449;48.728;8.968;2024-03-23T10:23:43;10.30;99.90
6822;DHT22;3449;48.728;8.968;2024-03-23T10:26:15;10.10;99.90
6822;DHT22;3449;48.728;8.968;2024-03-23T10:28:55;10.00;99.90
6822;DHT22;3449;48.728;8.968;2024-03-23T10:31:23;9.70;99.90
6822;DHT22;3449;48.728;8.968;2024-03-23T10:33:49;9.60;99.90
6822;DHT22;3449;48.728;8.968;2024-03-23T10:36:20;9.50;99.90
6822;DHT22;3449;48.728;8.968;2024-03-23T10:38:47;9.10;99.90
6822;DHT22;3449;48.728;8.968;2024-03-23T10:41:16;8.90;99.90
6822;DHT22;3449;48.728;8.968;2024-03-23T10:43:43;8.60;99.90
6822;DHT22;3449;48.728;8.968;2024-03-23T10:46:11;8.20;99.90
6822;DHT22;3449;48.728;8.968;2024-03-23T10:48:37;7.80;99.90
6822;DHT22;3449;48.728;8.968;2024-03-23T10:51:06;7.20;99.90
6822;DHT22;3449;48.728;8.968;2024-03-23T10:53:33;6.20;99.90
6822;DHT22;3449;48.728;8.968;2024-03-23T10:56:02;5.40;99.90
6822;DHT22;3449;48.728;8.968;2024-03-23T10:58:31;4.80;99.90
6822;DHT22;3449;48.728;8.968;2024-03-23T11:00:59;4.70;99.90
6822;DHT22;3449;48.728;8.968;2024-03-23T11:03:35;4.80;99.90
6822;DHT22;3449;48.728;8.968;2024-03-23T11:06:04;5.00;99.90
6822;DHT22;3449;48.728;8.968;2024-03-23T11:08:35;5.00;99.90
6822;DHT22;3449;48.728;8.968;2024-03-23T11:11:22;5.10;99.90
6822;DHT22;3449;48.728;8.968;2024-03-23T11:13:50;5.60;99.90
6822;DHT22;3449;48.728;8.968;2024-03-23T11:16:17;6.20;99.90
6822;DHT22;3449;48.728;8.968;2024-03-23T11:18:47;6.60;99.90
6822;DHT22;3449;48.728;8.968;2024-03-23T11:21:51;6.70;99.90
6822;DHT22;3449;48.728;8.968;2024-03-23T11:24:19;6.90;99.90
6822;DHT22;3449;48.728;8.968;2024-03-23T11:26:47;7.00;99.90
6822;DHT22;3449;48.728;8.968;2024-03-23T11:29:16;7.20;99.90
6822;DHT22;3449;48.728;8.968;2024-03-23T11:31:46;7.70;99.90
6822;DHT22;3449;48.728;8.968;2024-03-23T11:34:13;8.00;99.90
6822;DHT22;3449;48.728;8.968;2024-03-23T11:36:40;8.40;99.90
6822;DHT22;3449;48.728;8.968;2024-03-23T11:39:13;8.70;99.90
6822;DHT22;3449;48.728;8.968;2024-03-23T11:41:49;9.20;99.90
6822;DHT22;3449;48.728;8.968;2024-03-23T11:44:18;9.60;99.90
6822;DHT22;3449;48.728;8.968;2024-03-23T11:46:44;9.50;99.90
6822;DHT22;3449;48.728;8.968;2024-03-23T11:49:21;9.40;99.90
6822;DHT22;3449;48.728;8.968;2024-03-23T11:51:47;9.40;99.90
6822;DHT22;3449;48.728;8.968;2024-03-23T11:54:14;9.20;99.90
6822;DHT22;3449;48.728;8.968;2024-03-23T11:56:40;9.20;99.90
6822;DHT22;3449;48.728;8.968;2024-03-23T11:59:09;9.40;99.90
6822;DHT22;3449;48.728;8.968;2024-03-23T12:01:37;9.40;99.90
6822;DHT22;3449;48.728;8.968;2024-03-23T12:04:04;9.60;99.90
6822;DHT22;3449;48.728;8.968;2024-03-23T12:06:30;9.70;99.90
6822;DHT22;3449;48.728;8.968;2024-03-23T12:09:05;9.90;99.90
6822;DHT22;3449;48.728;8.968;2024-03-23T12:11:31;10.10;99.90
6822;DHT22;3449;48.728;8.968;2024-03-23T12:13:59;9.90;99.90
6822;DHT22;3449;48.728;8.968;2024-03-23T12:16:27;9.80;99.90
6822;DHT22;3449;48.728;8.968;2024-03-23T12:19:04;9.70;99.90
6822;DHT22;3449;48.728;8.968;2024-03-23T12:21:31;9.80;99.90
6822;DHT22;3449;48.728;8.968;2024-03-23T12:23:57;9.90;99.90
6822;DHT22;3449;48.728;8.968;2024-03-23T12:26:24;10.20;99.90
6822;DHT22;3449;48.728;8.968;2024-03-23T12:28:51;10.30;99.90
6822;DHT22;3449;48.728;8.968;2024-03-23T12:31:17;10.30;99.90
6822;DHT22;3449;48.728;8.968;2024-03-23T12:33:45;10.00;99.90
6822;DHT22;3449;48.728;8.968;2024-03-23T12:36:11;9.60;99.90
6822;DHT22;3449;48.728;8.968;2024-03-23T12:38:38;9.40;99.90
6822;DHT22;3449;48.728;8.968;2024-03-23T12:41:04;10.10;99.90
6822;DHT22;3449;48.728;8.968;2024-03-23T12:43:31;10.50;99.90
6822;DHT22;3449;48.728;8.968;2024-03-23T12:45:57;10.10;99.90
6822;DHT22;3449;48.728;8.968;2024-03-23T12:48:24;9.70;99.90
6822;DHT22;3449;48.728;8.968;2024-03-23T12:50:54;9.30;99.90
6822;DHT22;3449;48.728;8.968;2024-03-23T12:53:21;9.10;99.90
6822;DHT22;3449;48.728;8.968;2024-03-23T12:55:47;8.90;99.90
6822;DHT22;3449;48.728;8.968;2024-03-23T12:58:14;8.90;99.90
6822;DHT22;3449;48.728;8.968;2024-03-23T13:00:39;8.90;99.90
6822;DHT22;3449;48.728;8.968;2024-03-23T13:03:07;9.00;99.90
6822;DHT22;3449;48.728;8.968;2024-03-23T13:05:33;9.20;99.90
6822;DHT22;3449;48.728;8.968;2024-03-23T13:08:01;9.50;99.90
6822;DHT22;3449;48.728;8.968;2024-03-23T13:10:27;9.40;99.90
6822;DHT22;3449;48.728;8.968;2024-03-23T13:12:54;9.50;99.90
6822;DHT22;3449;48.728;8.968;2024-03-23T13:15:20;9.50;99.90
6822;DHT22;3449;48.728;8.968;2024-03-23T13:17:46;9.10;99.90
6822;DHT22;3449;48.728;8.968;2024-03-23T13:20:12;8.90;99.90
6822;DHT22;3449;48.728;8.968;2024-03-23T13:22:40;8.70;99.90
6822;DHT22;3449;48.728;8.968;2024-03-23T13:25:08;8.60;99.90
6822;DHT22;3449;48.728;8.968;2024-03-23T13:27:35;8.70;99.90
6822;DHT22;3449;48.728;8.968;2024-03-23T13:30:00;9.30;99.90
6822;DHT22;3449;48.728;8.968;2024-03-23T13:32:29;10.00;99.90
6822;DHT22;3449;48.728;8.968;2024-03-23T13:34:55;10.70;99.90
6822;DHT22;3449;48.728;8.968;2024-03-23T13:37:22;10.90;99.90
6822;DHT22;3449;48.728;8.968;2024-03-23T13:39:47;11.30;98.20
6822;DHT22;3449;48.728;8.968;2024-03-23T13:42:16;11.50;98.10
6822;DHT22;3449;48.728;8.968;2024-03-23T13:44:42;11.70;97.70
6822;DHT22;3449;48.728;8.968;2024-03-23T13:47:08;11.60;98.10
6822;DHT22;3449;48.728;8.968;2024-03-23T13:49:34;11.30;99.90
6822;DHT22;3449;48.728;8.968;2024-03-23T13:52:01;10.80;99.90
6822;DHT22;3449;48.728;8.968;2024-03-23T13:54:28;10.40;99.90
6822;DHT22;3449;48.728;8.968;2024-03-23T13:56:55;9.80;99.90
6822;DHT22;3449;48.728;8.968;2024-03-23T13:59:23;9.40;99.90
6822;DHT22;3449;48.728;8.968;2024-03-23T14:01:50;9.00;99.90
6822;DHT22;3449;48.728;8.968;2024-03-23T14:04:16;8.70;99.90
6822;DHT22;3449;48.728;8.968;2024-03-23T14:06:44;8.30;99.90
6822;DHT22;3449;48.728;8.968;2024-03-23T14:09:11;7.60;99.90
6822;DHT22;3449;48.728;8.968;2024-03-23T14:11:38;7.80;99.90
6822;DHT22;3449;48.728;8.968;2024-03-23T14:14:04;8.30;99.90
6822;DHT22;3449;48.728;8.968;2024-03-23T14:16:32;8.30;99.90
6822;DHT22;3449;48.728;8.968;2024-03-23T14:18:59;8.40;99.90
6822;DHT22;3449;48.728;8.968;2024-03-23T14:21:26;8.40;99.90
6822;DHT22;3449;48.728;8.968;2024-03-23T14:23:52;8.40;99.90
6822;DHT22;3449;48.728;8.968;2024-03-23T14:26:19;8.30;99.90
6822;DHT22;3449;48.728;8.968;2024-03-23T14:28:45;8.50;99.90
6822;DHT22;3449;48.728;8.968;2024-03-23T14:31:12;9.20;99.90
6822;DHT22;3449;48.728;8.968;2024-03-23T14:33:40;10.00;99.90
6822;DHT22;3449;48.728;8.968;2024-03-23T14:36:12;10.60;99.90
6822;DHT22;3449;48.728;8.968;2024-03-23T14:38:37;11.10;99.90
6822;DHT22;3449;48.728;8.968;2024-03-23T14:41:04;10.90;99.90
6822;DHT22;3449;48.728;8.968;2024-03-23T14:43:30;10.30;99.90
6822;DHT22;3449;48.728;8.968;2024-03-23T14:46:08;9.60;99.90
6822;DHT22;3449;48.728;8.968;2024-03-23T14:48:34;9.00;99.90
6822;DHT22;3449;48.728;8.968;2024-03-23T14:51:03;8.40;99.90
6822;DHT22;3449;48.728;8.968;2024-03-23T14:53:30;8.20;99.90
6822;DHT22;3449;48.728;8.968;2024-03-23T14:55:57;7.70;99.90
6822;DHT22;3449;48.728;8.968;2024-03-23T14:58:23;7.20;99.90
6822;DHT22;3449;48.728;8.968;2024-03-23T15:00:50;6.70;99.90
6822;DHT22;3449;48.728;8.968;2024-03-23T15:03:17;6.40;99.90
6822;DHT22;3449;48.728;8.968;2024-03-23T15:05:52;6.50;99.90
6822;DHT22;3449;48.728;8.968;2024-03-23T15:08:19;7.10;99.90
6822;DHT22;3449;48.728;8.968;2024-03-23T15:10:46;7.90;99.90
6822;DHT22;3449;48.728;8.968;2024-03-23T15:13:12;8.70;99.90
6822;DHT22;3449;48.728;8.968;2024-03-23T15:15:40;9.30;99.90
6822;DHT22;3449;48.728;8.968;2024-03-23T15:18:07;10.10;99.90
6822;DHT22;3449;48.728;8.968;2024-03-23T15:20:33;10.50;99.90
6822;DHT22;3449;48.728;8.968;2024-03-23T15:23:01;11.00;99.90
6822;DHT22;3449;48.728;8.968;2024-03-23T15:25:30;11.20;99.90
6822;DHT22;3449;48.728;8.968;2024-03-23T15:27:56;11.50;99.90
6822;DHT22;3449;48.728;8.968;2024-03-23T15:30:23;11.30;99.90
6822;DHT22;3449;48.728;8.968;2024-03-23T15:32:49;10.90;99.90
6822;DHT22;3449;48.728;8.968;2024-03-23T15:35:17;11.00;99.90
6822;DHT22;3449;48.728;8.968;2024-03-23T15:37:43;10.30;99.90
6822;DHT22;3449;48.728;8.968;2024-03-23T15:40:11;10.10;99.90
6822;DHT22;3449;48.728;8.968;2024-03-23T15:42:39;9.80;99.90
6822;DHT22;3449;48.728;8.968;2024-03-23T15:45:07;9.30;99.90
6822;DHT22;3449;48.728;8.968;2024-03-23T15:47:33;8.50;99.90
6822;DHT22;3449;48.728;8.968;2024-03-23T15:50:01;8.20;99.90
6822;DHT22;3449;48.728;8.968;2024-03-23T15:52:28;7.90;99.90
6822;DHT22;3449;48.728;8.968;2024-03-23T15:54:55;7.40;99.90
6822;DHT22;3449;48.728;8.968;2024-03-23T15:57:23;7.60;99.90
6822;DHT22;3449;48.728;8.968;2024-03-23T15:59:52;8.30;99.90
6822;DHT22;3449;48.728;8.968;2024-03-23T16:02:18;8.90;99.90
6822;DHT22;3449;48.728;8.968;2024-03-23T16:04:44;9.30;99.90
6822;DHT22;3449;48.728;8.968;2024-03-23T16:07:11;9.20;99.90
6822;DHT22;3449;48.728;8.968;2024-03-23T16:09:39;8.90;99.90
6822;DHT22;3449;48.728;8.968;2024-03-23T16:12:05;8.60;99.90
6822;DHT22;3449;48.728;8.968;2024-03-23T16:14:32;8.60;99.90
6822;DHT22;3449;48.728;8.968;2024-03-23T16:16:59;8.40;99.90
6822;DHT22;3449;48.728;8.968;2024-03-23T16:19:26;8.00;99.90
6822;DHT22;3449;48.728;8.968;2024-03-23T16:21:52;7.50;99.90
6822;DHT22;3449;48.728;8.968;2024-03-23T16:24:19;6.90;99.90
6822;DHT22;3449;48.728;8.968;2024-03-23T16:26:45;6.70;99.90
6822;DHT22;3449;48.728;8.968;2024-03-23T16:29:12;6.60;99.90
6822;DHT22;3449;48.728;8.968;2024-03-23T16:31:38;6.60;99.90
6822;DHT22;3449;48.728;8.968;2024-03-23T16:34:06;6.50;99.90
6822;DHT22;3449;48.728;8.968;2024-03-23T16:36:32;6.40;99.90
6822;DHT22;3449;48.728;8.968;2024-03-23T16:38:59;6.40;99.90
6822;DHT22;3449;48.728;8.968;2024-03-23T16:41:24;6.30;99.90
6822;DHT22;3449;48.728;8.968;2024-03-23T16:43:52;6.30;99.90
6822;DHT22;3449;48.728;8.968;2024-03-23T16:46:18;6.10;99.90
6822;DHT22;3449;48.728;8.968;2024-03-23T16:48:45;6.00;99.90
6822;DHT22;3449;48.728;8.968;2024-03-23T16:51:12;6.00;99.90
6822;DHT22;3449;48.728;8.968;2024-03-23T16:53:39;5.90;99.90
6822;DHT22;3449;48.728;8.968;2024-03-23T16:56:07;5.90;99.90
6822;DHT22;3449;48.728;8.968;2024-03-23T16:58:35;5.70;99.90
6822;DHT22;3449;48.728;8.968;2024-03-23T17:01:03;5.70;99.90
6822;DHT22;3449;48.728;8.968;2024-03-23T17:03:33;5.60;99.90
6822;DHT22;3449;48.728;8.968;2024-03-23T17:06:02;5.40;99.90
6822;DHT22;3449;48.728;8.968;2024-03-23T17:08:31;5.40;99.90